Time;durP1;ratioP1;P1;durP2;ratioP2;P2;SDS_P1;SDS_P2;PMS_P1;PMS_P2;Temp;Humidity;BMP_temperature;BMP_pressure;BME280_temperature;BME280_humidity;BME280_pressure;Samples;Min_cycle;Max_cycle;Signal;HPM_P1;HPM_P2
2023/10/08 00:03:10;;;;;;;5.10;4.00;;;;;;;15.44;51.27;98796.69;5041467;28;20463;-72
2023/10/08 00:05:37;;;;;;;6.07;4.40;;;;;;;15.57;51.01;98795.00;5041430;28;20464;-73
2023/10/08 00:08:04;;;;;;;5.27;4.23;;;;;;;15.59;51.00;98801.09;5033268;28;20491;-72
2023/10/08 00:10:35;;;;;;;6.37;4.37;;;;;;;15.52;51.17;98789.31;5050757;28;20463;-72
2023/10/08 00:13:02;;;;;;;5.10;4.23;;;;;;;15.53;51.04;98799.19;5047472;28;20451;-73
2023/10/08 00:15:32;;;;;;;6.93;4.00;;;;;;;15.59;50.96;98788.28;5043339;28;20457;-73
2023/10/08 00:18:01;;;;;;;5.57;3.77;;;;;;;15.52;51.17;98789.31;5038372;28;20828;-72
2023/10/08 00:20:35;;;;;;;6.83;4.60;;;;;;;15.60;50.52;98780.91;5046283;28;20500;-72
2023/10/08 00:23:03;;;;;;;5.87;4.00;;;;;;;15.55;50.92;98783.44;5047678;28;20796;-72
2023/10/08 00:25:30;;;;;;;4.87;4.37;;;;;;;15.52;51.12;98772.94;5039663;28;20539;-72
2023/10/08 00:27:57;;;;;;;4.90;3.90;;;;;;;15.63;50.92;98777.75;5051131;28;20471;-73
2023/10/08 00:30:25;;;;;;;5.50;4.67;;;;;;;15.43;51.49;98784.09;5040301;28;20459;-72
2023/10/08 00:32:52;;;;;;;5.20;4.23;;;;;;;15.24;51.84;98785.00;5043493;28;20958;-72
2023/10/08 00:35:20;;;;;;;5.13;4.00;;;;;;;15.32;52.27;98787.47;5036150;28;20476;-72
2023/10/08 00:37:48;;;;;;;5.13;4.40;;;;;;;15.27;51.85;98778.28;5040780;28;20515;-72
2023/10/08 00:40:21;;;;;;;6.50;4.27;;;;;;;15.22;51.30;98773.47;5046641;28;21295;-72
2023/10/08 00:42:51;;;;;;;5.80;4.07;;;;;;;15.19;51.26;98773.06;5046993;28;20934;-72
2023/10/08 00:45:19;;;;;;;4.23;3.77;;;;;;;15.15;51.61;98783.53;5050990;28;20938;-72
2023/10/08 00:47:47;;;;;;;6.03;4.20;;;;;;;15.17;50.98;98766.97;5046639;28;20485;-72
2023/10/08 00:50:20;;;;;;;5.07;4.30;;;;;;;15.29;50.86;98760.63;5051103;28;20441;-72
2023/10/08 00:52:57;;;;;;;4.67;4.17;;;;;;;15.17;50.84;98762.34;5045448;28;20478;-72
2023/10/08 00:55:28;;;;;;;5.87;4.27;;;;;;;15.24;50.75;98771.38;5040274;28;20517;-72
2023/10/08 00:58:07;;;;;;;5.40;4.37;;;;;;;15.15;50.72;98749.97;5041299;28;20529;-73
2023/10/08 01:00:40;;;;;;;5.50;4.20;;;;;;;15.21;50.43;98760.88;5051445;28;20446;-73
2023/10/08 01:03:14;;;;;;;6.80;4.57;;;;;;;15.28;50.18;98761.66;5053719;28;20446;-73
2023/10/08 01:05:46;;;;;;;5.30;4.17;;;;;;;15.32;49.91;98757.47;5045369;28;20537;-72
2023/10/08 01:08:22;;;;;;;7.37;4.63;;;;;;;15.28;49.55;98758.09;5042184;28;20571;-72
2023/10/08 01:10:57;;;;;;;6.43;4.67;;;;;;;15.37;49.31;98757.66;5051550;28;20456;-72
2023/10/08 01:13:26;;;;;;;5.10;4.00;;;;;;;15.19;49.98;98760.25;5047571;28;20463;-72
2023/10/08 01:15:55;;;;;;;4.83;4.10;;;;;;;15.26;49.81;98754.78;5045889;28;20933;-73
2023/10/08 01:18:32;;;;;;;5.83;4.50;;;;;;;15.24;49.70;98755.00;5044271;28;20894;-72
2023/10/08 01:21:07;;;;;;;5.20;4.70;;;;;;;15.28;49.74;98758.09;5046847;28;20981;-73
2023/10/08 01:23:35;;;;;;;6.53;4.23;;;;;;;15.29;49.44;98757.88;5042005;28;20500;-72
2023/10/08 01:26:10;;;;;;;6.47;4.80;;;;;;;15.38;49.16;98761.22;5041293;28;20485;-73
2023/10/08 01:28:37;;;;;;;5.60;4.40;;;;;;;15.12;49.27;98763.00;5051430;28;20735;-72
2023/10/08 01:31:06;;;;;;;6.10;4.50;;;;;;;15.13;49.37;98763.81;5050561;28;20456;-72
2023/10/08 01:33:37;;;;;;;8.90;4.63;;;;;;;15.30;48.81;98753.28;5047227;28;20477;-72
2023/10/08 01:36:05;;;;;;;5.10;4.10;;;;;;;15.11;48.55;98734.03;5049108;28;20979;-72
2023/10/08 01:38:33;;;;;;;5.97;5.37;;;;;;;15.24;48.76;98757.72;5046577;28;20474;-73
2023/10/08 01:41:05;;;;;;;4.83;4.20;;;;;;;15.19;48.74;98762.97;5049313;28;20545;-72
2023/10/08 01:43:32;;;;;;;8.50;4.73;;;;;;;15.11;48.96;98758.59;5048016;28;20821;-73
2023/10/08 01:45:59;;;;;;;5.23;4.70;;;;;;;15.07;49.02;98761.94;5042498;28;20513;-73
2023/10/08 01:48:27;;;;;;;6.43;4.60;;;;;;;15.15;49.24;98760.88;5040483;28;20551;-72
2023/10/08 01:50:55;;;;;;;5.60;4.20;;;;;;;15.12;49.14;98763.00;5051685;28;20517;-72
2023/10/08 01:53:22;;;;;;;6.70;5.00;;;;;;;15.16;49.40;98754.38;5051633;28;20447;-72
2023/10/08 01:55:53;;;;;;;6.00;4.70;;;;;;;14.97;49.62;98753.34;5047744;28;20442;-72
2023/10/08 01:58:22;;;;;;;5.63;4.87;;;;;;;14.98;49.64;98765.94;5054330;28;21115;-73
2023/10/08 02:00:52;;;;;;;5.27;4.20;;;;;;;14.97;49.74;98764.25;5046386;28;20949;-73
2023/10/08 02:03:19;;;;;;;6.40;4.67;;;;;;;14.82;49.87;98760.94;5048033;28;20515;-73
2023/10/08 02:05:46;;;;;;;5.37;4.20;;;;;;;14.99;49.62;98764.91;5045705;28;20490;-73
2023/10/08 02:08:14;;;;;;;7.30;4.80;;;;;;;14.83;49.93;98758.00;5039947;28;20558;-72
2023/10/08 02:10:42;;;;;;;6.23;4.50;;;;;;;14.82;50.10;98760.94;5049397;28;20453;-73
2023/10/08 02:13:10;;;;;;;5.57;4.10;;;;;;;15.08;49.38;98760.91;5041618;28;20497;-72
2023/10/08 02:15:45;;;;;;;8.20;5.50;;;;;;;15.11;49.53;98755.84;5047030;28;20461;-73
2023/10/08 02:18:13;;;;;;;6.30;4.33;;;;;;;14.84;49.81;98756.13;5038875;28;20552;-73
2023/10/08 02:20:39;;;;;;;6.80;4.80;;;;;;;15.10;49.11;98759.63;5051171;28;20472;-73
2023/10/08 02:23:06;;;;;;;6.60;4.30;;;;;;;14.92;48.82;98764.94;5037308;28;20966;-72
2023/10/08 02:25:34;;;;;;;6.33;4.60;;;;;;;14.99;48.88;98760.28;5041528;28;20524;-73
2023/10/08 02:28:03;;;;;;;6.60;4.40;;;;;;;15.27;48.35;98762.72;5047031;28;20593;-73
2023/10/08 02:30:29;;;;;;;6.53;4.53;;;;;;;15.13;48.39;98780.19;5042631;28;20508;-72
2023/10/08 02:32:58;;;;;;;4.97;3.77;;;;;;;15.13;48.20;98772.84;5036819;28;20489;-73
2023/10/08 02:35:24;;;;;;;5.47;4.60;;;;;;;15.19;48.35;98767.59;5047582;28;20465;-73
2023/10/08 02:37:52;;;;;;;5.87;4.43;;;;;;;15.41;47.75;98764.38;5045226;28;20461;-72
2023/10/08 02:40:26;;;;;;;5.63;4.50;;;;;;;15.24;48.15;98762.34;5042246;28;20473;-73
2023/10/08 02:42:57;;;;;;;7.77;4.33;;;;;;;15.32;48.17;98762.91;5050922;28;20457;-72
2023/10/08 02:45:26;;;;;;;5.70;4.10;;;;;;;15.44;47.81;98766.66;5047771;28;21039;-72
2023/10/08 02:47:52;;;;;;;6.93;4.37;;;;;;;15.22;48.23;98764.44;5043075;28;20476;-72
2023/10/08 02:50:22;;;;;;;5.03;4.27;;;;;;;15.19;48.61;98762.97;5045850;28;20547;-72
2023/10/08 02:52:49;;;;;;;5.83;4.47;;;;;;;14.95;49.00;98763.63;5049853;28;20456;-72
2023/10/08 02:55:28;;;;;;;5.97;4.50;;;;;;;14.90;49.20;98764.31;5048724;28;20447;-73
2023/10/08 02:57:56;;;;;;;5.20;3.90;;;;;;;14.87;49.37;98762.00;5046695;28;20460;-73
2023/10/08 03:00:29;;;;;;;6.30;4.73;;;;;;;14.97;49.30;98758.81;5036231;28;20467;-73
2023/10/08 03:02:57;;;;;;;5.40;4.23;;;;;;;14.99;49.22;98757.56;5044607;28;20453;-72
2023/10/08 03:05:29;;;;;;;5.00;4.10;;;;;;;15.09;49.05;98751.66;5044682;28;20447;-73
2023/10/08 03:07:57;;;;;;;7.50;4.90;;;;;;;14.79;50.11;98749.41;5043365;28;20494;-73
2023/10/08 03:10:32;;;;;;;5.47;3.83;;;;;;;14.93;50.12;98752.13;5037208;28;20440;-74
2023/10/08 03:13:04;;;;;;;11.63;4.57;;;;;;;14.70;50.62;98750.69;5039456;28;20996;-74
2023/10/08 03:15:37;;;;;;;5.53;5.03;;;;;;;14.83;50.42;98738.09;5037679;28;20546;-73
2023/10/08 03:18:09;;;;;;;5.17;4.60;;;;;;;14.85;50.57;98749.63;5044943;28;20477;-73
2023/10/08 03:20:43;;;;;;;8.37;4.60;;;;;;;14.66;51.20;98752.16;5048484;28;20460;-74
2023/10/08 03:23:23;;;;;;;6.50;4.50;;;;;;;14.67;51.38;98748.38;5047205;28;20815;-74
2023/10/08 03:25:59;;;;;;;5.80;4.37;;;;;;;14.79;50.88;98743.97;5040240;28;20466;-73
2023/10/08 03:28:27;;;;;;;8.90;4.90;;;;;;;14.65;51.36;98745.03;5047936;28;20523;-73
2023/10/08 03:31:02;;;;;;;6.03;4.30;;;;;;;14.61;51.89;98757.41;5046403;28;20456;-73
2023/10/08 03:33:34;;;;;;;6.80;4.60;;;;;;;14.76;51.45;98752.56;5037932;28;20521;-74
2023/10/08 03:36:09;;;;;;;6.60;4.33;;;;;;;14.76;51.36;98763.47;5040882;28;21009;-72
2023/10/08 03:38:50;;;;;;;6.20;4.27;;;;;;;14.77;51.75;98754.25;5037269;28;20480;-73
2023/10/08 03:41:27;;;;;;;5.47;4.03;;;;;;;14.74;51.75;98757.38;5047841;28;20818;-72
2023/10/08 03:44:01;;;;;;;5.20;3.80;;;;;;;14.88;51.10;98760.94;5040959;28;20572;-72
2023/10/08 03:46:29;;;;;;;5.60;4.83;;;;;;;14.89;51.38;98764.50;5041681;28;20454;-76
2023/10/08 03:48:57;;;;;;;5.43;4.20;;;;;;;14.88;51.52;98768.28;5039525;28;20500;-71
2023/10/08 03:51:27;;;;;;;5.23;4.13;;;;;;;14.65;52.24;98774.16;5047210;28;20553;-74
2023/10/08 03:54:10;;;;;;;4.77;3.77;;;;;;;14.62;52.43;98777.31;5042902;28;20513;-74
2023/10/08 03:56:37;;;;;;;6.80;4.13;;;;;;;14.48;52.49;98771.03;5040180;28;21033;-74
2023/10/08 03:59:12;;;;;;;6.50;4.30;;;;;;;14.44;52.61;98767.88;5045996;28;20473;-74
2023/10/08 04:01:39;;;;;;;6.00;4.50;;;;;;;14.47;52.76;98763.91;5039238;28;20456;-74
2023/10/08 04:04:12;;;;;;;6.13;4.80;;;;;;;14.36;52.74;98767.19;5045667;28;20459;-74
2023/10/08 04:06:48;;;;;;;4.90;4.10;;;;;;;14.33;53.13;98762.16;5046727;28;20697;-74
2023/10/08 04:09:23;;;;;;;5.00;3.93;;;;;;;14.22;53.55;98762.81;5047952;28;20921;-74
2023/10/08 04:12:03;;;;;;;4.73;4.10;;;;;;;14.13;54.03;98760.28;5041944;28;20472;-74
2023/10/08 04:14:30;;;;;;;5.50;4.67;;;;;;;14.03;54.30;98754.38;5044611;28;20544;-74
2023/10/08 04:16:58;;;;;;;7.63;5.03;;;;;;;13.95;54.91;98745.59;5042483;28;20466;-74
2023/10/08 04:19:27;;;;;;;5.53;4.53;;;;;;;13.73;55.86;98753.91;5047224;28;20542;-74
2023/10/08 04:21:55;;;;;;;5.50;4.53;;;;;;;13.75;56.36;98748.25;5043301;28;20487;-73
2023/10/08 04:24:29;;;;;;;6.17;4.90;;;;;;;13.79;56.17;98750.38;5043734;28;20444;-74
2023/10/08 04:26:58;;;;;;;6.13;4.93;;;;;;;13.81;56.69;98742.00;5044904;28;20467;-74
2023/10/08 04:29:25;;;;;;;6.33;4.47;;;;;;;13.67;56.76;98743.00;5046175;28;20569;-74
2023/10/08 04:32:01;;;;;;;9.17;5.07;;;;;;;13.65;57.11;98743.19;5043860;28;20518;-73
2023/10/08 04:34:29;;;;;;;6.47;4.47;;;;;;;13.54;57.47;98746.53;5042668;28;20475;-74
2023/10/08 04:37:00;;;;;;;5.70;4.50;;;;;;;13.57;57.44;98739.84;5039227;28;20511;-74
2023/10/08 04:39:32;;;;;;;5.87;4.43;;;;;;;13.70;57.60;98751.59;5042112;28;20483;-74
2023/10/08 04:42:07;;;;;;;6.80;5.00;;;;;;;13.50;58.87;98756.13;5043677;28;20554;-73
2023/10/08 04:44:34;;;;;;;7.33;5.50;;;;;;;13.30;59.03;98722.59;5046720;28;20446;-74
2023/10/08 04:47:06;;;;;;;7.35;4.97;;;;;;;13.45;59.44;98762.16;5039864;28;21189;-74
2023/10/08 04:49:34;;;;;;;5.13;4.63;;;;;;;13.56;59.23;98754.47;5041879;28;20693;-74
2023/10/08 04:52:08;;;;;;;5.83;4.97;;;;;;;13.47;59.65;98745.66;5045631;28;20447;-74
2023/10/08 04:54:40;;;;;;;6.70;5.00;;;;;;;13.48;59.54;98741.06;5042505;28;20439;-74
2023/10/08 04:57:14;;;;;;;7.37;4.93;;;;;;;13.37;59.94;98772.38;5040958;28;20542;-74
2023/10/08 04:59:43;;;;;;;8.93;5.50;;;;;;;13.34;59.96;98749.16;5050774;28;20527;-74
2023/10/08 05:02:33;;;;;;;7.10;4.75;;;;;;;13.32;60.11;98743.06;5039778;28;20460;-75
2023/10/08 05:05:22;;;;;;;6.88;5.40;;;;;;;13.45;59.56;98755.91;5034804;28;20208;-74
2023/10/08 05:08:17;;;;;;;9.55;5.18;;;;;;;13.40;59.62;98745.63;5033165;28;20193;-71
2023/10/08 05:14:05;;;;;;;6.95;4.80;;;;;;;13.13;60.39;98751.94;5002963;28;20454;-73
2023/10/08 05:16:44;;;;;;;7.05;5.28;;;;;;;13.31;59.22;98763.16;5000401;28;20230;-73
2023/10/08 05:19:47;;;;;;;5.93;4.47;;;;;;;13.56;58.73;98760.75;5029365;28;20227;-73
2023/10/08 05:22:43;;;;;;;6.05;4.82;;;;;;;13.36;58.94;98760.66;5045381;28;20342;-73
2023/10/08 05:25:24;;;;;;;7.80;5.37;;;;;;;13.33;59.24;98766.50;5046684;28;20744;-75
2023/10/08 05:28:09;;;;;;;5.30;4.57;;;;;;;13.10;59.92;98764.06;5045447;28;20471;-73
2023/10/08 05:30:38;;;;;;;6.20;4.40;;;;;;;13.31;59.68;98771.31;5047830;28;20819;-73
2023/10/08 05:33:12;;;;;;;6.65;4.53;;;;;;;13.14;60.58;98759.06;5049309;28;20466;-73
2023/10/08 05:35:54;;;;;;;6.45;4.60;;;;;;;13.19;60.69;98769.38;5049052;28;20228;-73
2023/10/08 05:38:34;;;;;;;6.90;4.40;;;;;;;13.18;60.95;98773.97;5040964;28;21181;-73
2023/10/08 05:41:05;;;;;;;6.40;4.03;;;;;;;13.13;60.63;98768.25;5049189;28;20479;-73
2023/10/08 05:46:56;;;;;;;5.07;4.55;;;;;;;12.92;61.58;98781.94;5000860;28;20209;-73
2023/10/08 05:52:40;;;;;;;6.68;4.80;;;;;;;12.85;62.03;98783.75;5034006;28;20221;-73
2023/10/08 05:55:25;;;;;;;8.23;4.50;;;;;;;12.91;62.27;98788.41;5044100;28;20201;-73
2023/10/08 05:58:13;;;;;;;6.57;4.18;;;;;;;12.86;62.54;98782.72;5040117;28;20558;-73
2023/10/08 06:01:04;;;;;;;6.18;5.22;;;;;;;12.64;63.39;98788.22;5046417;28;20254;-73
2023/10/08 06:03:36;;;;;;;9.13;4.95;;;;;;;12.83;62.99;98785.81;5044825;28;20229;-73
2023/10/08 06:09:20;;;;;;;6.55;4.75;;;;;;;12.87;63.46;98781.69;5041254;28;20311;-73
2023/10/08 06:12:06;;;;;;;8.40;5.35;;;;;;;12.86;64.10;98783.56;5048171;28;20261;-73
2023/10/08 06:14:52;;;;;;;6.75;4.60;;;;;;;12.84;63.56;98776.66;5042508;28;20229;-73
2023/10/08 06:17:34;;;;;;;6.68;5.45;;;;;;;12.83;63.65;98780.41;5039160;28;20308;-73
2023/10/08 06:20:09;;;;;;;6.80;5.30;;;;;;;12.76;64.25;98778.47;5046306;28;20307;-73
2023/10/08 06:22:35;;;;;;;8.63;5.13;;;;;;;12.85;63.90;98778.31;5043450;28;20236;-73
2023/10/08 06:25:17;;;;;;;7.67;5.20;;;;;;;12.79;64.05;98783.50;5042303;28;20907;-73
2023/10/08 06:27:44;;;;;;;8.68;5.25;;;;;;;12.81;63.83;98782.47;5038923;28;20558;-73
2023/10/08 06:30:16;;;;;;;6.65;4.60;;;;;;;12.91;63.59;98781.09;5052069;28;20266;-73
2023/10/08 06:32:45;;;;;;;8.60;4.53;;;;;;;12.77;64.28;98774.72;5047965;28;20241;-73
2023/10/08 06:35:17;;;;;;;6.95;4.70;;;;;;;12.91;64.03;98780.25;5043473;28;20206;-73
2023/10/08 06:37:45;;;;;;;5.35;4.78;;;;;;;12.85;64.10;98772.88;5044510;28;20565;-73
2023/10/08 06:40:40;;;;;;;5.65;4.53;;;;;;;12.98;63.56;98787.41;5047594;28;20225;-73
2023/10/08 06:43:03;;;;;;;6.85;4.35;;;;;;;12.93;63.68;98775.47;5046102;28;20197;-73
2023/10/08 06:45:33;;;;;;;8.00;4.40;;;;;;;12.99;63.65;98780.09;5037786;28;20227;-73
2023/10/08 06:48:06;;;;;;;5.57;4.22;;;;;;;12.96;63.62;98775.06;5046703;28;20248;-73
2023/10/08 06:50:35;;;;;;;6.20;4.53;;;;;;;12.89;63.74;98774.16;5047811;28;20197;-73
2023/10/08 06:53:06;;;;;;;5.93;4.75;;;;;;;12.88;63.92;98783.34;5046687;28;20274;-73
2023/10/08 06:55:33;;;;;;;6.38;4.68;;;;;;;13.10;63.26;98798.53;5045335;28;20204;-73
2023/10/08 06:58:01;;;;;;;6.97;4.80;;;;;;;13.29;62.60;98803.31;5046787;28;20229;-73
2023/10/08 07:00:38;;;;;;;5.55;4.13;;;;;;;13.51;61.31;98800.47;5046040;28;20206;-73
2023/10/08 07:03:08;;;;;;;6.30;4.30;;;;;;;14.33;58.55;98797.56;5049055;28;20588;-73
2023/10/08 07:05:40;;;;;;;6.37;3.83;;;;;;;14.84;55.94;98807.91;5046719;28;20197;-73
2023/10/08 07:08:09;;;;;;;5.40;4.17;;;;;;;14.84;55.53;98808.75;5038339;28;21209;-73
2023/10/08 07:10:36;;;;;;;9.20;4.47;;;;;;;14.90;55.64;98813.38;5042688;28;21045;-73
2023/10/08 07:13:03;;;;;;;5.37;4.23;;;;;;;14.82;56.10;98812.72;5046749;28;20483;-73
2023/10/08 07:15:32;;;;;;;8.20;4.93;;;;;;;14.69;56.72;98848.97;5044343;28;20488;-73
2023/10/08 07:18:08;;;;;;;5.90;4.40;;;;;;;14.60;57.02;98818.41;5043258;28;21130;-73
2023/10/08 07:20:39;;;;;;;6.17;4.33;;;;;;;14.49;57.58;98824.47;5042420;28;20493;-73
2023/10/08 07:23:18;;;;;;;5.00;4.50;;;;;;;14.58;57.26;98825.94;5045748;28;21017;-73
2023/10/08 07:25:53;;;;;;;5.73;4.13;;;;;;;14.67;56.84;98821.94;5045212;28;20452;-73
2023/10/08 07:28:20;;;;;;;4.90;3.90;;;;;;;14.95;56.06;98826.34;5050003;28;20467;-72
2023/10/08 07:30:49;;;;;;;4.47;3.73;;;;;;;15.01;55.87;98820.03;5048609;28;20525;-73
2023/10/08 07:33:19;;;;;;;4.30;3.90;;;;;;;15.07;55.47;98819.19;5044736;28;20917;-73
2023/10/08 07:35:57;;;;;;;6.23;4.53;;;;;;;15.19;55.85;98816.69;5047488;28;20456;-73
2023/10/08 07:38:28;;;;;;;7.07;4.40;;;;;;;15.24;55.64;98827.78;5042012;28;20555;-73
2023/10/08 07:40:56;;;;;;;7.40;4.50;;;;;;;15.35;55.55;98811.59;5044552;28;20450;-73
2023/10/08 07:43:23;;;;;;;6.30;5.07;;;;;;;15.13;56.59;98807.47;5045787;28;20457;-73
2023/10/08 07:45:51;;;;;;;5.80;4.83;;;;;;;15.18;56.44;98798.66;5047513;28;20456;-73
2023/10/08 07:48:19;;;;;;;5.33;4.77;;;;;;;15.07;57.04;98805.56;5052215;28;21179;-73
2023/10/08 07:50:50;;;;;;;6.23;4.50;;;;;;;15.26;55.79;98801.16;5047062;28;21401;-73
2023/10/08 07:53:20;;;;;;;5.07;4.40;;;;;;;15.20;56.43;98797.38;5047358;28;20487;-73
2023/10/08 07:55:48;;;;;;;6.23;5.13;;;;;;;15.41;56.48;98797.09;5045767;28;20447;-73
2023/10/08 07:58:15;;;;;;;6.00;4.60;;;;;;;15.50;56.80;98802.34;5046059;28;20463;-73
2023/10/08 08:00:51;;;;;;;6.67;5.10;;;;;;;15.45;56.72;98816.63;5041852;28;20462;-74
2023/10/08 08:03:19;;;;;;;6.97;5.00;;;;;;;15.39;57.32;98817.47;5051140;28;20508;-73
2023/10/08 08:05:52;;;;;;;5.10;4.10;;;;;;;15.53;56.57;98831.91;5043192;28;20441;-73
2023/10/08 08:08:22;;;;;;;7.57;4.10;;;;;;;15.92;56.75;98848.16;5042755;28;20482;-73
2023/10/08 08:10:57;;;;;;;6.50;4.50;;;;;;;16.50;55.37;98861.75;5041152;28;20517;-73
2023/10/08 08:13:27;;;;;;;9.47;5.13;;;;;;;17.09;53.62;98855.84;5044744;28;20458;-73
2023/10/08 08:15:58;;;;;;;5.63;4.43;;;;;;;18.36;49.86;98859.69;5049391;28;20451;-74
2023/10/08 08:18:32;;;;;;;6.57;3.73;;;;;;;19.79;46.11;98853.97;5045155;28;20499;-74
2023/10/08 08:21:02;;;;;;;5.17;4.67;;;;;;;21.23;41.06;98837.19;5039750;28;20475;-74
2023/10/08 08:23:31;;;;;;;5.50;4.70;;;;;;;22.44;39.27;98832.47;5046690;28;20435;-74
2023/10/08 08:26:11;;;;;;;6.23;4.10;;;;;;;23.76;36.28;98844.66;5043521;28;20959;-74
2023/10/08 08:28:39;;;;;;;7.77;4.70;;;;;;;24.60;34.94;98854.72;5044996;28;20525;-74
2023/10/08 08:31:13;;;;;;;6.00;4.30;;;;;;;24.89;34.11;98865.31;5041316;28;20451;-74
2023/10/08 08:33:53;;;;;;;5.30;4.43;;;;;;;25.38;33.21;98865.63;5045663;28;20459;-74
2023/10/08 08:36:21;;;;;;;5.67;4.60;;;;;;;25.28;33.31;98871.19;5044137;28;20505;-74
2023/10/08 08:38:49;;;;;;;8.20;4.60;;;;;;;26.22;31.86;98875.19;5036872;28;20566;-74
2023/10/08 08:41:17;;;;;;;5.63;4.10;;;;;;;26.44;31.51;98876.50;5042067;28;20500;-74
2023/10/08 08:43:46;;;;;;;5.10;4.20;;;;;;;26.33;31.22;98876.81;5044595;28;20538;-74
2023/10/08 08:46:13;;;;;;;4.97;4.30;;;;;;;25.62;32.62;98882.53;5043859;28;20945;-74
2023/10/08 08:48:41;;;;;;;4.50;4.10;;;;;;;25.61;32.54;98875.31;5038923;28;20536;-74
2023/10/08 08:51:09;;;;;;;5.97;4.20;;;;;;;25.36;33.18;98879.75;5041812;28;20447;-74
2023/10/08 08:53:37;;;;;;;5.33;4.80;;;;;;;25.79;33.23;98871.97;5042969;28;20550;-74
2023/10/08 08:56:09;;;;;;;7.20;4.50;;;;;;;26.82;30.64;98862.13;5045811;28;20458;-74
2023/10/08 08:58:36;;;;;;;6.20;4.57;;;;;;;27.71;29.79;98870.03;5046108;28;20555;-75
2023/10/08 09:01:05;;;;;;;5.60;5.00;;;;;;;27.73;29.62;98861.41;5044397;28;20462;-75
2023/10/08 09:03:31;;;;;;;5.07;3.70;;;;;;;26.61;31.70;98851.16;5050069;28;20455;-74
2023/10/08 09:05:59;;;;;;;4.40;3.90;;;;;;;27.18;31.41;98866.34;5050574;28;20491;-75
2023/10/08 09:08:28;;;;;;;4.43;3.43;;;;;;;27.00;31.43;98858.69;5047957;28;20468;-74
2023/10/08 09:11:01;;;;;;;4.20;3.13;;;;;;;26.35;32.59;98863.47;5048790;28;20519;-74
2023/10/08 09:13:28;;;;;;;3.80;3.50;;;;;;;26.13;33.37;98865.78;5048688;28;20518;-74
2023/10/08 09:16:04;;;;;;;3.90;3.60;;;;;;;25.07;35.04;98870.31;5048606;28;20475;-74
2023/10/08 09:18:32;;;;;;;3.63;3.33;;;;;;;25.26;35.20;98868.69;5043634;28;20479;-74
2023/10/08 09:21:10;;;;;;;4.90;4.30;;;;;;;25.57;34.98;98863.97;5048633;28;20524;-74
2023/10/08 09:23:42;;;;;;;3.93;3.40;;;;;;;24.87;35.89;98867.53;5044919;28;20921;-74
2023/10/08 09:26:14;;;;;;;4.30;3.90;;;;;;;24.93;35.95;98864.50;5050814;28;20450;-74
2023/10/08 09:28:41;;;;;;;3.90;3.60;;;;;;;24.57;36.89;98866.34;5049886;28;20501;-73
2023/10/08 09:31:12;;;;;;;5.10;3.50;;;;;;;24.85;36.90;98870.56;5053027;28;20997;-74
2023/10/08 09:33:39;;;;;;;4.83;3.97;;;;;;;25.27;35.90;98869.53;5052578;28;20455;-72
2023/10/08 09:36:10;;;;;;;5.97;3.93;;;;;;;25.27;36.28;98875.91;5050547;28;20816;-74
2023/10/08 09:38:37;;;;;;;4.53;3.67;;;;;;;24.12;37.99;98875.28;5045623;28;20482;-74
2023/10/08 09:41:05;;;;;;;4.23;2.93;;;;;;;24.39;37.65;98875.97;5048348;28;20443;-75
2023/10/08 09:43:34;;;;;;;6.80;3.97;;;;;;;24.26;37.09;98846.06;5047818;28;20447;-74
2023/10/08 09:46:07;;;;;;;4.77;3.30;;;;;;;24.00;38.04;98871.91;5049426;28;20446;-74
2023/10/08 09:48:36;;;;;;;4.80;3.87;;;;;;;24.18;37.93;98862.31;5049543;28;20489;-74
2023/10/08 09:51:06;;;;;;;6.77;3.67;;;;;;;24.00;38.83;98861.69;5047129;28;20486;-74
2023/10/08 09:53:39;;;;;;;4.23;3.47;;;;;;;23.72;39.45;98862.06;5053437;28;20442;-74
2023/10/08 09:56:14;;;;;;;3.90;3.40;;;;;;;23.76;39.25;98866.78;5047455;28;20457;-74
2023/10/08 09:58:43;;;;;;;4.67;3.40;;;;;;;23.75;38.91;98858.75;5049195;28;20509;-74
2023/10/08 10:01:11;;;;;;;4.80;3.53;;;;;;;23.51;39.01;98857.47;5053764;28;20949;-74
2023/10/08 10:03:39;;;;;;;3.63;3.27;;;;;;;23.37;39.46;98866.25;5047961;28;20859;-74
2023/10/08 10:06:12;;;;;;;4.33;3.50;;;;;;;23.11;39.75;98872.63;5051733;28;20448;-74
2023/10/08 10:08:43;;;;;;;5.37;3.53;;;;;;;22.98;39.96;98875.84;5047155;28;20469;-74
2023/10/08 10:11:10;;;;;;;5.30;3.83;;;;;;;23.18;39.54;98887.06;5050535;28;20491;-74
2023/10/08 10:13:40;;;;;;;3.63;3.33;;;;;;;23.56;39.74;98888.78;5051172;28;20443;-74
2023/10/08 10:16:10;;;;;;;3.70;3.20;;;;;;;24.03;39.10;98890.75;5050692;28;20442;-74
2023/10/08 10:18:37;;;;;;;4.80;3.60;;;;;;;24.35;38.31;98891.47;5051734;28;20495;-74
2023/10/08 10:21:27;;;;;;;5.87;3.57;;;;;;;24.62;38.05;98884.91;5044296;28;20469;-74
2023/10/08 10:23:56;;;;;;;4.17;3.43;;;;;;;24.61;37.97;98881.31;5053142;28;20494;-74
2023/10/08 10:26:27;;;;;;;5.00;4.00;;;;;;;24.43;37.68;98879.03;5053987;28;20462;-74
2023/10/08 10:29:21;;;;;;;3.53;3.00;;;;;;;24.70;37.45;98885.19;5052318;28;20467;-74
2023/10/08 10:31:53;;;;;;;6.20;3.63;;;;;;;24.45;37.38;98879.59;5048980;28;20550;-74
2023/10/08 10:34:21;;;;;;;5.17;3.40;;;;;;;24.32;37.75;98880.13;5051233;28;20466;-74
2023/10/08 10:36:49;;;;;;;4.13;3.70;;;;;;;24.16;37.93;98876.41;5048124;28;20454;-74
2023/10/08 10:39:25;;;;;;;4.63;3.73;;;;;;;24.31;37.91;98890.34;5045834;28;20502;-74
2023/10/08 10:41:57;;;;;;;4.53;3.80;;;;;;;24.58;37.17;98892.09;5049753;28;20516;-74
2023/10/08 10:44:24;;;;;;;5.30;3.93;;;;;;;24.35;37.32;98891.47;5052944;28;21028;-74
2023/10/08 10:47:25;;;;;;;4.97;3.57;;;;;;;24.29;37.91;98888.94;5054937;28;20430;-74
2023/10/08 10:49:48;;;;;;;3.97;3.20;;;;;;;24.61;37.70;98883.25;5046680;28;20479;-74
2023/10/08 10:52:19;;;;;;;5.50;3.77;;;;;;;25.68;35.44;98876.69;5049159;28;20474;-74
2023/10/08 10:54:58;;;;;;;4.70;3.40;;;;;;;26.68;33.70;98868.31;5052414;28;20978;-74
2023/10/08 10:57:34;;;;;;;5.63;3.57;;;;;;;27.75;31.96;98875.84;5052899;28;20464;-74
2023/10/08 11:00:28;;;;;;;4.57;3.40;;;;;;;28.00;31.77;98867.22;5046754;28;20460;-75
2023/10/08 11:03:02;;;;;;;4.73;3.73;;;;;;;27.93;30.86;98866.78;5048856;28;20477;-76
2023/10/08 11:05:29;;;;;;;5.60;4.03;;;;;;;27.72;31.64;98868.09;5047157;28;20897;-73
2023/10/08 11:08:00;;;;;;;4.10;3.53;;;;;;;28.14;31.10;98866.53;5042436;28;20504;-74
2023/10/08 11:10:28;;;;;;;6.40;3.70;;;;;;;27.34;30.97;98864.25;5049877;28;20486;-74
2023/10/08 11:12:58;;;;;;;4.90;3.73;;;;;;;27.86;30.44;98860.72;5043548;28;20456;-75
2023/10/08 11:15:37;;;;;;;4.47;4.07;;;;;;;28.92;29.95;98868.88;5044398;28;20459;-75
2023/10/08 11:18:10;;;;;;;4.73;3.23;;;;;;;29.70;28.49;98849.44;5047051;28;20482;-75
2023/10/08 11:20:39;;;;;;;5.40;3.90;;;;;;;29.42;27.69;98862.50;5044233;28;20526;-75
2023/10/08 11:23:18;;;;;;;5.67;3.67;;;;;;;29.82;27.53;98857.34;5042894;28;20564;-75
2023/10/08 11:25:59;;;;;;;4.30;3.90;;;;;;;29.48;27.23;98851.25;5052459;28;20466;-75
2023/10/08 11:28:27;;;;;;;5.43;3.73;;;;;;;30.03;27.42;98841.03;5049515;28;20462;-75
2023/10/08 11:30:54;;;;;;;4.50;4.10;;;;;;;29.15;27.67;98844.81;5044321;28;20497;-75
2023/10/08 11:33:22;;;;;;;4.97;4.17;;;;;;;28.41;29.20;98850.06;5047971;28;20440;-75
2023/10/08 11:35:58;;;;;;;4.50;3.80;;;;;;;28.49;29.16;98852.19;5042836;28;20447;-75
2023/10/08 11:38:27;;;;;;;6.27;4.47;;;;;;;29.05;28.45;98845.81;5052381;28;20493;-75
2023/10/08 11:40:57;;;;;;;4.07;3.67;;;;;;;29.20;28.33;98840.00;5042922;28;20856;-75
2023/10/08 11:43:25;;;;;;;4.20;3.47;;;;;;;28.44;29.49;98832.75;5048279;28;20951;-75
2023/10/08 11:45:52;;;;;;;7.73;4.07;;;;;;;29.09;28.42;98830.13;5048413;28;20443;-74
2023/10/08 11:48:25;;;;;;;4.83;3.53;;;;;;;29.54;28.04;98822.16;5041472;28;20570;-75
2023/10/08 11:50:57;;;;;;;6.00;3.60;;;;;;;29.88;27.26;98828.19;5044131;28;20482;-75
2023/10/08 11:53:24;;;;;;;6.10;4.17;;;;;;;30.29;27.25;98825.38;5043075;28;20448;-75
2023/10/08 11:55:56;;;;;;;4.60;3.70;;;;;;;31.20;26.05;98819.69;5048047;28;20444;-75
2023/10/08 11:58:37;;;;;;;5.47;4.20;;;;;;;30.66;26.26;98818.72;5046144;28;20471;-75
2023/10/08 12:01:04;;;;;;;6.23;4.20;;;;;;;30.01;26.09;98813.41;5047049;28;21248;-75
2023/10/08 12:03:31;;;;;;;6.47;4.10;;;;;;;30.42;25.89;98815.34;5045917;28;20458;-75
2023/10/08 12:05:59;;;;;;;6.63;4.30;;;;;;;30.97;26.10;98804.03;5047078;28;20451;-75
2023/10/08 12:08:27;;;;;;;5.03;3.93;;;;;;;30.14;26.07;98803.38;5052349;28;20466;-75
2023/10/08 12:10:54;;;;;;;4.60;4.07;;;;;;;30.34;26.24;98799.31;5051926;28;21582;-75